Time;durP1;ratioP1;P1;durP2;ratioP2;P2;SDS_P1;SDS_P2;PMS_P1;PMS_P2;Temp;Humidity;BMP_temperature;BMP_pressure;BME280_temperature;BME280_humidity;BME280_pressure;Samples;Min_cycle;Max_cycle;Signal;HPM_P1;HPM_P2
2022/09/28 00:00:26;;;;;;;2.75;0.70;;;16.50;86.60;;;;;;4977653;28;20105;-82
2022/09/28 00:02:56;;;;;;;4.85;1.05;;;16.50;86.60;;;;;;5028658;28;20049;-82
2022/09/28 00:05:25;;;;;;;2.88;0.68;;;16.50;86.40;;;;;;4984621;28;20506;-80
2022/09/28 00:07:57;;;;;;;1.77;0.95;;;16.50;86.30;;;;;;4977905;28;20409;-82
2022/09/28 00:10:23;;;;;;;5.13;0.80;;;16.50;86.50;;;;;;4977506;28;20015;-81
2022/09/28 00:12:50;;;;;;;2.47;0.88;;;16.60;86.40;;;;;;4977727;28;20094;-81
2022/09/28 00:15:16;;;;;;;1.50;0.68;;;16.50;86.50;;;;;;4976811;28;20046;-79
2022/09/28 00:17:45;;;;;;;3.30;0.68;;;16.50;86.40;;;;;;4977050;28;20042;-80
2022/09/28 00:20:11;;;;;;;1.85;0.50;;;16.50;86.10;;;;;;4977721;28;20023;-80
2022/09/28 00:22:37;;;;;;;1.75;0.65;;;16.40;86.00;;;;;;4979285;28;20070;-81
2022/09/28 00:25:04;;;;;;;3.83;0.80;;;16.40;85.90;;;;;;4977478;28;20027;-82
2022/09/28 00:27:30;;;;;;;3.50;0.90;;;16.40;86.20;;;;;;4977225;28;20092;-81
2022/09/28 00:29:56;;;;;;;4.18;0.80;;;16.40;86.10;;;;;;4978182;28;20062;-82
2022/09/28 00:32:23;;;;;;;1.67;0.70;;;16.40;86.20;;;;;;4977066;28;20057;-80
2022/09/28 00:34:50;;;;;;;4.97;0.60;;;16.30;86.00;;;;;;5008145;28;20037;-79
2022/09/28 00:37:17;;;;;;;3.17;0.60;;;16.50;86.30;;;;;;4988435;28;20049;-80
2022/09/28 00:39:44;;;;;;;3.97;0.80;;;16.50;86.00;;;;;;4995091;28;20034;-80
2022/09/28 00:42:17;;;;;;;6.35;0.88;;;16.40;86.00;;;;;;4996569;28;20034;-79
2022/09/28 00:44:46;;;;;;;2.20;0.65;;;16.40;86.10;;;;;;4996439;28;20027;-80
2022/09/28 00:47:33;;;;;;;0.70;0.50;;;16.50;85.70;;;;;;4988161;28;20034;-80
2022/09/28 00:50:07;;;;;;;6.85;0.75;;;16.40;85.80;;;;;;4976789;28;20031;-80
2022/09/28 00:52:41;;;;;;;1.33;0.80;;;16.50;85.70;;;;;;4976380;28;20049;-81
2022/09/28 00:55:10;;;;;;;3.50;0.90;;;16.40;85.70;;;;;;4992023;28;20508;-81
2022/09/28 00:57:42;;;;;;;2.40;1.03;;;16.40;85.70;;;;;;4976786;28;20467;-80
2022/09/28 01:00:09;;;;;;;3.67;0.90;;;16.50;85.70;;;;;;4976952;28;20015;-80
2022/09/28 01:02:35;;;;;;;2.70;0.70;;;16.50;85.60;;;;;;4976387;28;20026;-80
2022/09/28 01:05:04;;;;;;;3.20;0.90;;;16.50;85.50;;;;;;4977081;28;20109;-81
2022/09/28 01:07:31;;;;;;;2.58;1.00;;;16.50;85.40;;;;;;4976381;28;20022;-81
2022/09/28 01:09:57;;;;;;;3.45;0.88;;;16.50;85.30;;;;;;5007421;28;20525;-81
2022/09/28 01:12:23;;;;;;;2.22;0.70;;;16.50;85.40;;;;;;4991395;28;20409;-82
2022/09/28 01:14:49;;;;;;;3.67;0.85;;;16.60;85.30;;;;;;4977131;28;20031;-80
2022/09/28 01:17:21;;;;;;;2.45;0.80;;;16.60;85.20;;;;;;4976436;28;20804;-80
2022/09/28 01:20:19;;;;;;;1.52;0.65;;;16.60;85.30;;;;;;4976585;28;20026;-80
2022/09/28 01:23:18;;;;;;;1.63;0.80;;;16.50;85.50;;;;;;4985507;28;20065;-81
2022/09/28 01:26:34;;;;;;;1.95;1.00;;;16.60;85.30;;;;;;4989886;28;20031;-81
2022/09/28 01:29:10;;;;;;;1.58;0.77;;;16.50;85.30;;;;;;4966848;28;20049;-81
2022/09/28 01:31:42;;;;;;;2.28;0.82;;;16.50;85.40;;;;;;4976645;28;20105;-80
2022/09/28 01:34:16;;;;;;;3.40;0.90;;;16.60;85.40;;;;;;4976539;28;20058;-80
2022/09/28 01:36:49;;;;;;;3.72;1.02;;;16.50;85.50;;;;;;4976467;28;20743;-80
2022/09/28 01:39:20;;;;;;;8.90;1.23;;;16.50;85.50;;;;;;4976773;28;20027;-80
2022/09/28 01:41:50;;;;;;;2.67;0.70;;;16.50;85.60;;;;;;4976399;28;20031;-79
2022/09/28 01:44:17;;;;;;;;;;;16.60;85.50;;;;;;4977384;28;20037;-80
2022/09/28 01:46:47;;;;;;;2.38;0.68;;;16.60;85.50;;;;;;4978604;28;20059;-80
2022/09/28 01:49:15;;;;;;;;;;;16.60;85.40;;;;;;4981520;28;20023;-80
2022/09/28 01:52:12;;;;;;;1.20;0.60;;;16.50;85.50;;;;;;4979779;28;20296;-79
2022/09/28 01:54:50;;;;;;;0.98;0.45;;;16.50;85.80;;;;;;4979919;28;20054;-78
2022/09/28 01:57:38;;;;;;;2.53;0.60;;;16.50;85.60;;;;;;4980765;28;20034;-81
2022/09/28 02:00:11;;;;;;;1.20;0.50;;;16.50;85.60;;;;;;4980040;28;20084;-79
2022/09/28 02:02:58;;;;;;;1.70;0.40;;;16.50;85.90;;;;;;4979842;28;20038;-80
2022/09/28 02:05:36;;;;;;;0.20;0.20;;;16.40;86.40;;;;;;4979622;28;20042;-80
2022/09/28 02:08:08;;;;;;;1.88;0.40;;;16.40;86.20;;;;;;4994746;28;20038;-80
2022/09/28 02:11:12;;;;;;;0.20;0.20;;;16.30;85.80;;;;;;4979842;28;20038;-80
2022/09/28 02:14:09;;;;;;;1.75;0.30;;;16.20;84.70;;;;;;4984937;28;20413;-80
2022/09/28 02:16:40;;;;;;;0.15;0.15;;;16.10;85.00;;;;;;4979018;28;20070;-81
2022/09/28 02:19:26;;;;;;;0.85;0.28;;;16.10;84.50;;;;;;4980612;28;20437;-80
2022/09/28 02:21:56;;;;;;;1.15;0.20;;;16.00;84.30;;;;;;4979791;28;20066;-82
2022/09/28 02:24:36;;;;;;;0.40;0.30;;;16.00;84.20;;;;;;4999250;28;20073;-81
2022/09/28 02:27:05;;;;;;;;;;;15.80;83.40;;;;;;4999392;28;20026;-80
2022/09/28 02:29:31;;;;;;;0.63;0.40;;;15.80;83.50;;;;;;4980170;28;20005;-81
2022/09/28 02:31:56;;;;;;;0.30;0.20;;;15.80;83.20;;;;;;4979170;28;20497;-80
2022/09/28 02:34:22;;;;;;;0.30;0.30;;;15.80;83.00;;;;;;4994063;28;20486;-80
2022/09/28 02:36:48;;;;;;;0.32;0.25;;;15.80;83.20;;;;;;4994933;28;20761;-80
2022/09/28 02:39:16;;;;;;;1.67;0.40;;;15.70;82.40;;;;;;4979112;28;20103;-80
2022/09/28 02:41:57;;;;;;;1.33;0.30;;;15.70;83.00;;;;;;4979004;28;20019;-81
2022/09/28 02:44:36;;;;;;;0.75;0.43;;;15.60;82.80;;;;;;4979432;28;20030;-81
2022/09/28 02:47:35;;;;;;;1.20;0.40;;;15.60;82.60;;;;;;4979349;28;20023;-81
2022/09/28 02:50:19;;;;;;;0.85;0.40;;;15.60;82.70;;;;;;4979114;28;20106;-80
2022/09/28 02:53:03;;;;;;;1.95;0.43;;;15.50;82.70;;;;;;4994180;28;20105;-81
2022/09/28 02:56:05;;;;;;;0.60;0.40;;;15.60;82.30;;;;;;4979130;28;20042;-80
2022/09/28 02:58:59;;;;;;;1.33;0.40;;;15.60;82.40;;;;;;4978942;28;20038;-81
2022/09/28 03:02:08;;;;;;;3.45;0.57;;;15.60;82.40;;;;;;5009882;28;20034;-81
2022/09/28 03:04:41;;;;;;;0.90;0.50;;;15.60;82.20;;;;;;4996673;28;20105;-81
2022/09/28 03:07:14;;;;;;;0.93;0.32;;;15.60;82.30;;;;;;4981901;28;20051;-79
2022/09/28 03:09:52;;;;;;;1.27;0.50;;;15.60;81.80;;;;;;4993940;28;20023;-81
2022/09/28 03:12:22;;;;;;;1.38;0.50;;;15.50;81.40;;;;;;4978622;28;20046;-80
2022/09/28 03:15:04;;;;;;;0.47;0.45;;;15.50;81.40;;;;;;4979028;28;20039;-80
2022/09/28 03:17:29;;;;;;;0.55;0.38;;;15.50;81.30;;;;;;4978601;28;20056;-81
2022/09/28 03:19:55;;;;;;;0.80;0.50;;;15.40;81.30;;;;;;4978762;28;20034;-80
2022/09/28 03:22:20;;;;;;;1.55;0.55;;;15.40;81.60;;;;;;4983551;28;20026;-82
2022/09/28 03:24:46;;;;;;;2.55;0.63;;;15.40;81.10;;;;;;4992019;28;20501;-81
2022/09/28 03:27:12;;;;;;;1.20;0.43;;;15.40;81.20;;;;;;4978818;28;20431;-82
2022/09/28 03:29:38;;;;;;;0.75;0.40;;;15.30;81.20;;;;;;4978336;28;20023;-81
2022/09/28 03:32:03;;;;;;;2.45;0.40;;;15.30;80.90;;;;;;4978835;28;20037;-80
2022/09/28 03:34:29;;;;;;;1.08;0.47;;;15.30;81.00;;;;;;4977636;28;20027;-81
2022/09/28 03:36:57;;;;;;;1.42;0.60;;;15.30;81.10;;;;;;4978264;28;20034;-80
2022/09/28 03:39:22;;;;;;;1.95;0.50;;;15.30;81.00;;;;;;4993443;28;20031;-81
2022/09/28 03:41:48;;;;;;;1.73;0.52;;;15.30;80.90;;;;;;4977927;28;20044;-80
2022/09/28 03:44:14;;;;;;;2.90;0.65;;;15.20;80.70;;;;;;4979453;28;20050;-81
2022/09/28 03:46:39;;;;;;;2.45;0.60;;;15.20;80.90;;;;;;4977892;28;20023;-80
2022/09/28 03:49:05;;;;;;;1.10;0.57;;;15.20;81.00;;;;;;4979244;28;20038;-81
2022/09/28 03:51:30;;;;;;;2.72;1.10;;;15.20;81.00;;;;;;4977753;28;20046;-81
2022/09/28 03:53:58;;;;;;;1.52;0.52;;;15.20;81.00;;;;;;4992323;28;20494;-81
2022/09/28 03:56:24;;;;;;;1.08;0.70;;;15.20;81.00;;;;;;4977887;28;20031;-80
2022/09/28 03:58:50;;;;;;;1.58;0.50;;;15.20;80.80;;;;;;4978272;28;20117;-81
2022/09/28 04:01:16;;;;;;;2.15;0.50;;;15.20;80.80;;;;;;4992961;28;20069;-81
2022/09/28 04:03:42;;;;;;;2.55;0.60;;;15.20;80.90;;;;;;4977683;28;20018;-81
2022/09/28 04:06:08;;;;;;;1.38;0.40;;;15.20;81.10;;;;;;4978497;28;20023;-81
2022/09/28 04:08:34;;;;;;;1.45;0.65;;;15.20;81.00;;;;;;4977925;28;20498;-82
2022/09/28 04:11:03;;;;;;;4.88;0.90;;;15.20;81.00;;;;;;4978091;28;20094;-81
2022/09/28 04:13:29;;;;;;;1.83;0.45;;;15.20;80.80;;;;;;4977448;28;20034;-81
2022/09/28 04:15:58;;;;;;;1.20;0.50;;;15.20;81.00;;;;;;4992268;28;20023;-82
2022/09/28 04:18:24;;;;;;;2.63;0.60;;;15.20;80.90;;;;;;4978582;28;20061;-81
2022/09/28 04:21:03;;;;;;;2.15;0.80;;;15.20;81.20;;;;;;4977293;28;20030;-81
2022/09/28 04:23:29;;;;;;;0.82;0.40;;;15.20;81.00;;;;;;4992712;28;20022;-82
2022/09/28 04:25:54;;;;;;;0.90;0.60;;;15.20;81.10;;;;;;4996656;28;20018;-81
2022/09/28 04:31:12;;;;;;;1.33;0.63;;;15.20;81.00;;;;;;4982363;28;20575;-81
2022/09/28 04:33:38;;;;;;;1.58;0.60;;;15.20;81.00;;;;;;5006922;28;20042;-82
2022/09/28 04:36:04;;;;;;;3.08;0.90;;;15.30;81.10;;;;;;4976902;28;20023;-81
2022/09/28 04:38:30;;;;;;;2.33;0.80;;;15.20;81.10;;;;;;4977264;28;20027;-81
2022/09/28 04:40:56;;;;;;;0.90;0.68;;;15.20;81.00;;;;;;4977279;28;20111;-81
2022/09/28 04:43:22;;;;;;;1.30;0.80;;;15.20;80.90;;;;;;4991067;28;20498;-81
2022/09/28 04:45:47;;;;;;;1.33;0.77;;;15.20;81.10;;;;;;4990348;28;20023;-80
2022/09/28 04:48:13;;;;;;;3.35;1.10;;;15.20;80.90;;;;;;5006561;28;20035;-80
2022/09/28 04:50:39;;;;;;;2.95;0.85;;;15.20;81.10;;;;;;4974867;28;20043;-80
2022/09/28 04:53:04;;;;;;;1.50;0.70;;;15.20;81.20;;;;;;5007172;28;20049;-80
2022/09/28 04:55:31;;;;;;;1.20;0.60;;;15.20;81.20;;;;;;4977382;28;20027;-82
2022/09/28 04:58:02;;;;;;;3.20;1.00;;;15.20;81.30;;;;;;5004374;28;20065;-83
2022/09/28 05:00:29;;;;;;;1.92;0.60;;;15.10;81.20;;;;;;4975315;28;20029;-78
2022/09/28 05:02:54;;;;;;;0.93;0.60;;;15.20;81.20;;;;;;4991683;28;20030;-80
2022/09/28 05:05:20;;;;;;;4.35;1.10;;;15.10;81.10;;;;;;4996108;28;20113;-81
2022/09/28 05:07:46;;;;;;;3.72;0.93;;;15.10;81.20;;;;;;4995962;28;20030;-82
2022/09/28 05:10:12;;;;;;;2.15;0.70;;;15.10;81.20;;;;;;4996495;28;20148;-83
2022/09/28 05:12:38;;;;;;;2.65;0.90;;;15.10;81.10;;;;;;5001244;28;20511;-82
2022/09/28 05:15:04;;;;;;;1.50;0.90;;;15.20;81.00;;;;;;4983582;28;20030;-87
2022/09/28 05:17:30;;;;;;;1.90;0.63;;;15.10;81.00;;;;;;4989780;28;20038;-86
2022/09/28 05:19:56;;;;;;;0.90;0.60;;;15.20;80.90;;;;;;4993510;28;20026;-83
2022/09/28 05:22:21;;;;;;;2.42;0.80;;;15.10;80.60;;;;;;4993393;28;20093;-81
2022/09/28 05:24:47;;;;;;;4.57;0.77;;;15.10;80.70;;;;;;5008704;28;20110;-81
2022/09/28 05:27:13;;;;;;;3.15;0.80;;;15.10;80.90;;;;;;4992999;28;20033;-80
2022/09/28 05:29:38;;;;;;;1.08;0.68;;;15.10;80.90;;;;;;4993379;28;20050;-80
2022/09/28 05:32:04;;;;;;;0.95;0.60;;;15.00;80.90;;;;;;4974707;28;20089;-80
2022/09/28 05:34:30;;;;;;;1.13;0.60;;;15.10;81.00;;;;;;4975270;28;20023;-80
2022/09/28 05:36:55;;;;;;;1.42;0.73;;;15.00;80.90;;;;;;4982614;28;20026;-80
2022/09/28 05:39:21;;;;;;;2.83;0.70;;;15.10;81.00;;;;;;4994618;28;20037;-80
2022/09/28 05:41:47;;;;;;;1.40;0.90;;;15.10;81.00;;;;;;4993110;28;20125;-80
2022/09/28 05:44:12;;;;;;;3.22;0.80;;;15.10;81.00;;;;;;4974815;28;20102;-80
2022/09/28 05:46:38;;;;;;;2.08;0.60;;;15.10;81.00;;;;;;4984502;28;20023;-80
2022/09/28 05:49:03;;;;;;;0.90;0.60;;;15.10;81.10;;;;;;4991517;28;20026;-79
2022/09/28 05:51:29;;;;;;;2.45;0.63;;;15.00;81.10;;;;;;4978914;28;20062;-78
2022/09/28 05:54:04;;;;;;;0.88;0.55;;;15.00;81.20;;;;;;4994788;28;20497;-79
2022/09/28 05:56:30;;;;;;;1.35;0.60;;;15.00;81.30;;;;;;4995255;28;20029;-79
2022/09/28 05:58:57;;;;;;;1.98;1.00;;;15.00;81.30;;;;;;4991191;28;20058;-78
2022/09/28 06:01:23;;;;;;;1.40;0.75;;;15.00;81.30;;;;;;4976519;28;20027;-79
2022/09/28 06:03:49;;;;;;;2.95;0.95;;;15.00;81.40;;;;;;4976219;28;20031;-79
2022/09/28 06:06:15;;;;;;;2.35;1.00;;;15.00;81.40;;;;;;5007692;28;20389;-79
2022/09/28 06:08:45;;;;;;;2.47;1.30;;;15.00;81.10;;;;;;4974410;28;20037;-78
2022/09/28 06:11:11;;;;;;;5.57;1.17;;;15.00;81.00;;;;;;4981814;28;20058;-79
2022/09/28 06:13:38;;;;;;;4.65;1.02;;;14.90;80.70;;;;;;4978689;28;20194;-79
2022/09/28 06:16:06;;;;;;;5.10;1.38;;;14.80;80.70;;;;;;4989977;28;20026;-79
2022/09/28 06:18:32;;;;;;;3.72;1.20;;;14.90;80.80;;;;;;4974660;28;20031;-78
2022/09/28 06:20:58;;;;;;;4.60;1.27;;;14.90;80.60;;;;;;4974676;28;20035;-79
2022/09/28 06:23:23;;;;;;;2.85;1.15;;;14.80;80.40;;;;;;4993858;28;20077;-79
2022/09/28 06:25:49;;;;;;;5.15;1.58;;;14.80;80.60;;;;;;5011013;28;20030;-79
2022/09/28 06:28:15;;;;;;;5.40;1.35;;;14.80;80.60;;;;;;5027187;28;20025;-79
2022/09/28 06:30:42;;;;;;;2.22;1.08;;;14.80;80.80;;;;;;4991306;28;20026;-79
2022/09/28 06:33:11;;;;;;;5.43;1.10;;;14.80;81.00;;;;;;4979321;28;20031;-79
2022/09/28 06:35:37;;;;;;;2.60;1.27;;;14.80;81.00;;;;;;4979999;28;20559;-79
2022/09/28 06:38:03;;;;;;;1.98;1.00;;;14.80;80.80;;;;;;4979597;28;20099;-79
2022/09/28 06:40:30;;;;;;;6.22;1.77;;;14.80;80.90;;;;;;4979382;28;20034;-79
2022/09/28 06:43:08;;;;;;;6.25;1.00;;;14.80;80.90;;;;;;4979888;28;20501;-79
2022/09/28 06:45:35;;;;;;;4.65;1.40;;;14.80;80.90;;;;;;4979296;28;20026;-79
2022/09/28 06:48:02;;;;;;;4.80;1.00;;;14.80;80.90;;;;;;4979827;28;20045;-79
2022/09/28 06:50:31;;;;;;;4.13;1.67;;;14.80;80.90;;;;;;4979273;28;20045;-79
2022/09/28 06:52:58;;;;;;;2.92;1.40;;;14.90;80.80;;;;;;4979345;28;20478;-79
2022/09/28 06:55:24;;;;;;;3.15;1.27;;;14.90;80.80;;;;;;4979581;28;20037;-79
2022/09/28 06:57:57;;;;;;;5.80;1.23;;;14.80;80.70;;;;;;4979124;28;20026;-79
2022/09/28 07:00:25;;;;;;;2.53;1.13;;;14.90;80.70;;;;;;4979157;28;20027;-79
2022/09/28 07:02:51;;;;;;;1.10;0.90;;;14.80;80.90;;;;;;4994155;28;20027;-78
2022/09/28 07:05:18;;;;;;;3.53;1.25;;;14.90;80.80;;;;;;4979220;28;20823;-79
2022/09/28 07:07:43;;;;;;;4.70;1.52;;;14.90;80.80;;;;;;4979610;28;20054;-79
2022/09/28 07:10:11;;;;;;;4.55;1.23;;;14.90;80.80;;;;;;4979086;28;20506;-79
2022/09/28 07:12:38;;;;;;;3.25;1.50;;;14.80;80.80;;;;;;4998348;28;20034;-79
2022/09/28 07:15:06;;;;;;;4.78;1.67;;;14.90;80.90;;;;;;4982474;28;20069;-79
2022/09/28 07:17:33;;;;;;;9.13;1.77;;;14.90;80.90;;;;;;5010052;28;20027;-79
2022/09/28 07:19:59;;;;;;;6.18;2.33;;;14.80;81.10;;;;;;5009991;28;20109;-79
2022/09/28 07:22:24;;;;;;;5.25;2.17;;;14.90;81.20;;;;;;4984119;28;20124;-79
2022/09/28 07:24:50;;;;;;;5.63;1.60;;;15.00;81.10;;;;;;4997930;28;20018;-79
2022/09/28 07:27:16;;;;;;;2.47;1.15;;;15.00;81.10;;;;;;4998110;28;20030;-79
2022/09/28 07:29:42;;;;;;;2.33;1.10;;;15.00;81.00;;;;;;4998050;28;20034;-80
2022/09/28 07:32:07;;;;;;;2.17;1.30;;;15.00;81.10;;;;;;4988309;28;20437;-79
2022/09/28 07:34:42;;;;;;;3.15;1.33;;;15.10;81.10;;;;;;4978712;28;20054;-79
2022/09/28 07:37:12;;;;;;;3.97;1.23;;;15.10;81.10;;;;;;4978608;28;20042;-79
2022/09/28 07:42:23;;;;;;;4.28;1.50;;;15.10;80.90;;;;;;4978141;28;20042;-79
2022/09/28 07:44:50;;;;;;;5.93;1.45;;;15.10;81.10;;;;;;4989339;28;20060;-79
2022/09/28 07:47:16;;;;;;;5.47;1.88;;;15.10;81.00;;;;;;4995990;28;20065;-79
2022/09/28 07:49:43;;;;;;;2.42;1.50;;;15.20;80.90;;;;;;5009727;28;20022;-79
2022/09/28 07:52:09;;;;;;;2.00;1.20;;;15.10;81.00;;;;;;4976930;28;20050;-79
2022/09/28 07:54:38;;;;;;;4.40;1.52;;;15.20;81.10;;;;;;4978701;28;20054;-79
2022/09/28 07:57:05;;;;;;;4.55;1.65;;;15.20;81.20;;;;;;4978034;28;20041;-79
2022/09/28 07:59:31;;;;;;;5.63;1.85;;;15.20;81.10;;;;;;4993157;28;20038;-80
2022/09/28 08:01:58;;;;;;;3.40;1.60;;;15.20;81.30;;;;;;4977892;28;20093;-80
2022/09/28 08:04:24;;;;;;;3.53;1.65;;;15.20;81.40;;;;;;5009074;28;20030;-80
2022/09/28 08:06:49;;;;;;;4.20;2.30;;;15.20;81.40;;;;;;5009012;28;20037;-80
2022/09/28 08:09:15;;;;;;;2.70;1.67;;;15.30;81.50;;;;;;4978220;28;20122;-80
2022/09/28 08:11:42;;;;;;;3.05;1.88;;;15.30;81.50;;;;;;4990446;28;20034;-80
2022/09/28 08:14:09;;;;;;;3.83;1.55;;;15.30;81.50;;;;;;4997313;28;20026;-79
2022/09/28 08:16:35;;;;;;;6.90;2.15;;;15.30;81.70;;;;;;4992198;28;20504;-80
2022/09/28 08:19:01;;;;;;;3.28;1.70;;;15.30;81.70;;;;;;4977664;28;20022;-80
2022/09/28 08:21:45;;;;;;;5.93;1.65;;;15.30;81.70;;;;;;4977920;28;20042;-79
2022/09/28 08:24:15;;;;;;;5.75;1.92;;;15.30;81.90;;;;;;5009101;28;20137;-80
2022/09/28 08:26:42;;;;;;;6.13;2.38;;;15.40;81.70;;;;;;4977839;28;20026;-80
2022/09/28 08:29:07;;;;;;;7.63;2.45;;;15.40;81.60;;;;;;4977896;28;20517;-79
2022/09/28 08:31:33;;;;;;;6.68;3.75;;;15.40;81.60;;;;;;4977305;28;20038;-79
2022/09/28 08:33:59;;;;;;;7.25;3.25;;;15.40;81.50;;;;;;4992538;28;20027;-79
2022/09/28 08:36:25;;;;;;;4.45;2.45;;;15.30;81.60;;;;;;4977091;28;20073;-79
2022/09/28 08:38:50;;;;;;;9.02;2.45;;;15.30;81.50;;;;;;4977861;28;20030;-79
2022/09/28 08:41:43;;;;;;;2.45;1.30;;;15.30;81.30;;;;;;4977188;28;20039;-79
2022/09/28 08:44:15;;;;;;;3.33;1.20;;;15.20;80.80;;;;;;4977572;28;20035;-79
2022/09/28 08:46:46;;;;;;;4.32;1.50;;;15.10;80.60;;;;;;4977791;28;20031;-80
2022/09/28 08:49:24;;;;;;;5.90;1.20;;;15.10;80.50;;;;;;4977512;28;20019;-79
2022/09/28 08:52:30;;;;;;;8.75;1.40;;;15.00;80.40;;;;;;4977009;28;20051;-79
2022/09/28 08:55:29;;;;;;;3.92;1.10;;;15.00;80.10;;;;;;4976334;28;20035;-79
2022/09/28 08:58:13;;;;;;;2.33;1.20;;;14.90;80.10;;;;;;4974966;28;20049;-78
2022/09/28 09:00:46;;;;;;;2.45;1.27;;;14.90;79.80;;;;;;4996656;28;20030;-79
2022/09/28 09:03:16;;;;;;;12.32;1.67;;;14.90;80.10;;;;;;5024822;28;20026;-79
2022/09/28 09:05:48;;;;;;;;;;;15.00;80.00;;;;;;4992639;28;20046;-79
2022/09/28 09:08:48;;;;;;;3.67;1.50;;;15.00;80.00;;;;;;5008376;28;19938;-79
2022/09/28 09:11:49;;;;;;;3.28;1.75;;;15.00;79.60;;;;;;4981683;28;20050;-79
2022/09/28 09:14:38;;;;;;;3.45;2.08;;;15.10;79.80;;;;;;4968669;28;20043;-79
2022/09/28 09:17:13;;;;;;;4.38;1.80;;;15.20;79.80;;;;;;4990024;28;20038;-79
2022/09/28 09:19:57;;;;;;;2.95;1.73;;;15.10;79.90;;;;;;4977108;28;20046;-79
2022/09/28 09:22:46;;;;;;;6.25;1.40;;;15.20;79.80;;;;;;4982180;28;20050;-79
2022/09/28 09:25:47;;;;;;;4.55;1.73;;;15.10;79.70;;;;;;4983483;28;20027;-79
2022/09/28 09:28:12;;;;;;;4.90;2.20;;;15.00;79.50;;;;;;4979772;28;20160;-81
2022/09/28 09:31:07;;;;;;;2.83;2.15;;;15.10;79.40;;;;;;4976835;28;20500;-79
2022/09/28 09:33:42;;;;;;;9.52;2.47;;;15.10;79.80;;;;;;4977216;28;20078;-79
2022/09/28 09:36:29;;;;;;;5.10;2.00;;;15.10;79.40;;;;;;4976730;28;20481;-79
2022/09/28 09:39:33;;;;;;;5.88;1.20;;;15.00;79.60;;;;;;4991984;28;20046;-79
2022/09/28 09:42:17;;;;;;;5.00;1.55;;;15.00;79.60;;;;;;4985432;28;20129;-79
2022/09/28 09:44:58;;;;;;;2.20;1.05;;;15.10;79.50;;;;;;4976737;28;20398;-79
2022/09/28 09:47:33;;;;;;;5.97;1.30;;;15.10;79.70;;;;;;4991300;28;20398;-79
2022/09/28 09:50:10;;;;;;;2.88;1.30;;;15.20;79.40;;;;;;4984903;28;20089;-81
2022/09/28 09:52:43;;;;;;;2.75;1.30;;;15.30;79.10;;;;;;4977204;28;20042;-79
2022/09/28 09:55:24;;;;;;;5.95;1.17;;;15.30;78.60;;;;;;4976744;28;20114;-79
2022/09/28 09:58:22;;;;;;;3.58;1.33;;;15.30;78.90;;;;;;4991641;28;20030;-80
2022/09/28 10:00:51;;;;;;;3.75;1.00;;;15.30;78.90;;;;;;4990634;28;20081;-80
2022/09/28 10:03:26;;;;;;;3.72;1.10;;;15.30;78.80;;;;;;4976431;28;20027;-80
2022/09/28 10:06:00;;;;;;;2.65;0.98;;;15.30;78.70;;;;;;5008640;28;20051;-80
2022/09/28 10:08:28;;;;;;;3.80;1.17;;;15.50;78.60;;;;;;4995391;28;20042;-80
2022/09/28 10:11:07;;;;;;;2.95;1.00;;;15.50;78.30;;;;;;4986579;28;20030;-80
2022/09/28 10:13:33;;;;;;;1.40;1.10;;;15.50;77.80;;;;;;5000032;28;20022;-80
2022/09/28 10:15:59;;;;;;;3.88;1.08;;;15.50;77.80;;;;;;4986726;28;20465;-79
2022/09/28 10:18:26;;;;;;;4.40;1.20;;;15.50;77.70;;;;;;4980360;28;20041;-79
2022/09/28 10:20:51;;;;;;;2.78;1.02;;;15.50;78.00;;;;;;5011531;28;20500;-79
2022/09/28 10:23:28;;;;;;;2.45;0.70;;;15.40;77.30;;;;;;5007623;28;20035;-79
2022/09/28 10:26:01;;;;;;;4.40;1.95;;;15.40;77.40;;;;;;5000656;28;20027;-79
2022/09/28 10:28:53;;;;;;;3.58;1.88;;;15.50;77.50;;;;;;4978994;28;20125;-80
2022/09/28 10:31:42;;;;;;;3.65;1.20;;;15.70;77.30;;;;;;4980121;28;20472;-80
2022/09/28 10:34:14;;;;;;;1.30;1.00;;;15.80;77.50;;;;;;4994844;28;20482;-79
2022/09/28 10:36:54;;;;;;;6.15;1.20;;;15.90;77.70;;;;;;4994227;28;20046;-79
2022/09/28 10:39:29;;;;;;;2.83;0.95;;;15.90;77.70;;;;;;4994581;28;20023;-79
2022/09/28 10:41:55;;;;;;;3.53;1.60;;;15.90;77.30;;;;;;4979630;28;20023;-79
2022/09/28 10:44:21;;;;;;;3.20;1.45;;;15.90;77.60;;;;;;4981014;28;20015;-79
2022/09/28 10:46:56;;;;;;;6.97;1.33;;;15.90;77.50;;;;;;4981893;28;20617;-78
2022/09/28 10:49:24;;;;;;;5.97;1.67;;;15.90;78.00;;;;;;4989781;28;20026;-79
2022/09/28 10:51:57;;;;;;;2.90;1.50;;;15.90;78.20;;;;;;4979171;28;20057;-78
2022/09/28 10:54:28;;;;;;;4.03;1.30;;;15.90;77.80;;;;;;4986818;28;20022;-79
2022/09/28 10:56:55;;;;;;;2.72;1.38;;;16.00;77.90;;;;;;4998596;28;20472;-79
2022/09/28 10:59:22;;;;;;;5.22;1.45;;;15.90;78.00;;;;;;4998762;28;20127;-80
2022/09/28 11:02:00;;;;;;;6.97;1.30;;;15.80;78.40;;;;;;4995790;28;20076;-80
2022/09/28 11:04:29;;;;;;;5.90;1.42;;;15.80;78.60;;;;;;4994153;28;20521;-80
2022/09/28 11:06:58;;;;;;;5.75;1.80;;;16.00;78.60;;;;;;4979055;28;20023;-80
2022/09/28 11:09:34;;;;;;;2.58;0.90;;;16.10;78.30;;;;;;5010564;28;20023;-80
2022/09/28 11:12:03;;;;;;;2.15;1.27;;;16.20;78.30;;;;;;4994413;28;20472;-80
2022/09/28 11:14:37;;;;;;;2.65;1.45;;;16.30;78.30;;;;;;4998394;28;20377;-80
2022/09/28 11:17:21;;;;;;;8.73;1.63;;;16.30;78.40;;;;;;5008311;28;20053;-80
2022/09/28 11:19:47;;;;;;;3.40;1.67;;;16.30;78.40;;;;;;4979097;28;20085;-80
2022/09/28 11:22:27;;;;;;;4.25;1.55;;;16.30;78.00;;;;;;4982729;28;20030;-79
2022/09/28 11:25:12;;;;;;;7.43;1.67;;;16.40;78.40;;;;;;4998353;28;20027;-79
2022/09/28 11:27:38;;;;;;;2.95;1.52;;;16.30;78.30;;;;;;4995773;28;20030;-79
2022/09/28 11:30:04;;;;;;;6.30;1.60;;;16.30;78.50;;;;;;4978643;28;20029;-79
2022/09/28 11:32:40;;;;;;;4.45;1.38;;;16.30;78.40;;;;;;4978792;28;20438;-79
2022/09/28 11:35:19;;;;;;;3.45;1.27;;;16.10;78.40;;;;;;4978542;28;20037;-79
2022/09/28 11:37:55;;;;;;;4.30;1.67;;;16.10;78.80;;;;;;4985539;28;20105;-79
2022/09/28 11:41:05;;;;;;;3.90;1.58;;;16.20;79.00;;;;;;4997933;28;20078;-80
2022/09/28 11:43:44;;;;;;;4.75;1.40;;;16.40;78.40;;;;;;4978518;28;20038;-79
2022/09/28 11:46:31;;;;;;;3.95;2.33;;;16.40;77.80;;;;;;4978292;28;20034;-79
2022/09/28 11:49:19;;;;;;;2.97;1.60;;;16.40;77.30;;;;;;4993266;28;20057;-79
2022/09/28 11:51:47;;;;;;;5.32;1.33;;;16.40;77.10;;;;;;4986093;28;20058;-79
2022/09/28 11:54:35;;;;;;;2.45;0.98;;;16.60;76.90;;;;;;4978242;28;20058;-79
2022/09/28 11:57:03;;;;;;;3.85;1.20;;;16.70;77.20;;;;;;4993229;28;20042;-79
2022/09/28 11:59:35;;;;;;;7.20;1.30;;;16.70;76.60;;;;;;4978604;28;20049;-79
2022/09/28 12:02:16;;;;;;;2.90;1.35;;;16.80;76.20;;;;;;4977881;28;20042;-78
2022/09/28 12:05:02;;;;;;;6.15;1.42;;;16.80;76.10;;;;;;4978201;28;20414;-79
2022/09/28 12:07:37;;;;;;;2.97;1.10;;;16.70;77.00;;;;;;4986687;28;20038;-79
2022/09/28 12:10:28;;;;;;;2.35;1.10;;;16.80;77.10;;;;;;4997375;28;20034;-79
2022/09/28 12:13:08;;;;;;;1.50;1.00;;;16.80;77.10;;;;;;4977818;28;20402;-79
2022/09/28 12:16:00;;;;;;;1.75;1.00;;;16.90;77.20;;;;;;4992820;28;20026;-79
2022/09/28 12:18:36;;;;;;;4.30;1.10;;;16.80;76.30;;;;;;4977856;28;20089;-79
2022/09/28 12:21:24;;;;;;;2.25;1.00;;;16.80;76.50;;;;;;4978183;28;20053;-79
2022/09/28 12:23:55;;;;;;;2.25;1.08;;;16.60;74.30;;;;;;4994609;28;20041;-80
2022/09/28 12:26:37;;;;;;;2.60;1.33;;;16.60;75.70;;;;;;5000226;28;20382;-80
2022/09/28 12:29:14;;;;;;;4.78;1.00;;;16.50;76.20;;;;;;4987801;28;20137;-79
2022/09/28 12:31:52;;;;;;;4.68;0.95;;;16.60;76.20;;;;;;4996102;28;20018;-82
2022/09/28 12:34:18;;;;;;;4.75;1.02;;;16.80;75.80;;;;;;4996125;28;20038;-81
2022/09/28 12:37:00;;;;;;;6.22;1.40;;;16.80;76.30;;;;;;4994291;28;20504;-81
2022/09/28 12:39:57;;;;;;;3.97;1.15;;;16.90;76.30;;;;;;4994015;28;20026;-81
2022/09/28 12:42:35;;;;;;;2.88;0.90;;;16.90;75.90;;;;;;4991761;28;20026;-80
2022/09/28 12:45:07;;;;;;;4.10;0.95;;;17.00;75.90;;;;;;5008298;28;20052;-80
2022/09/28 12:47:56;;;;;;;6.97;1.48;;;17.00;75.70;;;;;;5008616;28;20014;-80
2022/09/28 12:50:44;;;;;;;4.45;1.30;;;16.90;74.90;;;;;;5008417;28;20026;-80
2022/09/28 12:53:47;;;;;;;3.35;1.13;;;17.00;75.10;;;;;;4992004;28;20053;-80
2022/09/28 12:56:32;;;;;;;2.42;1.20;;;17.00;75.00;;;;;;5008233;28;20080;-80
2022/09/28 12:59:16;;;;;;;3.80;1.10;;;17.20;75.10;;;;;;5026619;28;20030;-80
2022/09/28 13:02:20;;;;;;;8.60;1.70;;;17.30;75.00;;;;;;4991750;28;20108;-80
2022/09/28 13:05:13;;;;;;;3.03;0.98;;;17.30;75.00;;;;;;5008823;28;20038;-80
2022/09/28 13:07:54;;;;;;;2.08;0.80;;;17.30;74.50;;;;;;4995262;28;20029;-80
2022/09/28 13:10:43;;;;;;;6.47;1.92;;;17.20;74.20;;;;;;4995374;28;20488;-80
2022/09/28 13:13:20;;;;;;;3.90;1.67;;;17.20;73.80;;;;;;5006753;28;20057;-81
2022/09/28 13:16:02;;;;;;;2.22;1.00;;;17.10;74.10;;;;;;4993603;28;20040;-80
2022/09/28 13:18:41;;;;;;;2.58;1.20;;;17.20;73.30;;;;;;4995433;28;20026;-79
2022/09/28 13:21:19;;;;;;;2.55;1.20;;;17.20;73.20;;;;;;4993289;28;20105;-80
2022/09/28 13:23:47;;;;;;;6.38;1.55;;;17.20;73.30;;;;;;4999577;28;20030;-81